首页
METAR-TAF:

METAR-TAF

机场 :

Luni

Sarzana, 意大利

纬度: 44-05N, 经度: 009-59E, 海拔: 9米

当前天气观测

该预报发布于38分钟前的13:55 UTC
温度 11°C
湿度 28%
气压 1036 hPa
能见度10公里或以上
1500米以下无云,无积雨云

METAR: LIQW 201355Z /////KT CAVOK 11/M07 Q1036

时间: 15:33 (14:33 UTC)

预报

该预报发布于3小时和33分钟前的11:00 UTC
预报有效从20日的 12点(UTC)到 20日的 21点(UTC)
风速10节,风向东北
能见度10公里或以上
少量云层高于4000英尺
散云层高于6000英尺
短暂存在
从 20日的 12点(UTC)到 20日的 18点(UTC)
风速20节,风向东北,有时为30节阵风

TAF: LIQW 201100Z 2012/2021 04010KT 9999 FEW040 SCT060 TEMPO 2012/2018 04020G30KT

超过4000个机场的气象观测和天气预报(METAR&TAF报告)。

可查询的气象台以黄色和红色小点在地图上表示。

将鼠标移到小点上方,可查看气象台名称。

然后点击查看天气观测和预报。

如需切换地图:点击带黑十字的绿色按钮放大地图;点击带横线的绿色按钮缩小地图;或者点击绿色箭头查看邻近地区的地图。


METAR-TAF: